Airfield :
LOGIN :

Register | Disclaimer

   EN    FR    IT 

 










Legend :    VFR   Marginal VFR   IFR   Intensive IFR   Very Intensive IFR
Visi :
Ceiling :
>= 8 km
>= 3000ft
5 to 8 km
1000 to 3000 ft
1500m to 5 km
500 to 1000 ft
800 to 1500m
200 to 500 ft
< 800m
< 200 ft
Symbols :   Thunderstorms  Fog  Heavy snow  Heavy precipitations  Wind > 20 kt
SIGMETs :     Misc.  Thunderstorms  Icing  Turbulence  Mountain Waves  Volcanic Ashes






- Airport Elevation : 1830 ft


EBLB - Butgenbach Elsenborn

CURRENT METAR :
  • 180025Z AUTO 35010KT 2500 -SN OVC004/// 00/00 Q1004 YLO

EXPIRED METARs :
  • 172355Z AUTO 35011KT 2800 -SN OVC004/// 00/00 Q1004 YLO
  • 172325Z AUTO 35011KT 3300 -SN OVC004/// 00/00 Q1004 YLO
  • 172255Z AUTO 35010KT 3700 -SN OVC004/// 00/00 Q1004 YLO
  • 172225Z AUTO 01012KT 5000 -SN OVC004/// 00/00 Q1004 YLO
  • 172155Z AUTO 01010KT 2500 -SN OVC004/// 00/00 Q1005 YLO

Expired Forecast.



MET'MAP, your aeronautical weather chart ! - Copyright ORBIFLY December 2007 - Disclaimer

ORBIFLY MET'MAP TEAM :

Programming & Development : Alexandra Zaïnal
Concept & Development : Baudouin d'Aumeries
Co-Development & Prog : Marc-Olivier Méhu
Technical & hardware support : Manuel Goepfert

Contact : metmap@orbifly.com




SOURCES & CREDITS :

   NOAA